Weather History for Bentonville, AR

Change the Weather History Date:

Thursday, December 20, 2012

  Actual Average Record
Temperature  
Mean Temperature 42 °F -  
Max Temperature 55 °F 48 °F 70 °F (1978)
Min Temperature 30 °F 25 °F 5 °F (1983)
Degree Days  
Heating Degree Days 22    
Moisture  
Dew Point 22 °F    
Average Humidity 57    
Maximum Humidity 87    
Minimum Humidity 44    
Precipitation  
Precipitation 0.00 in - - ()
Sea Level Pressure  
Sea Level Pressure 29.95 in    
Wind  
Wind Speed 20 mph (WNW)    
Max Wind Speed 30 mph    
Max Gust Speed 43 mph    
Visibility 10 miles    
Events      
Averages and records for this station are not official NWS values.
T = Trace of Precipitation, MM = Missing Value Source: NWS Daily Summary

Daily Weather History Graph

Daily Weather History Graph

Search for Another Location

Airport:

Trip Planner

Search our weather history database for the weather conditions in past years. The results will help you decide how hot, cold, wet, or windy it might be!

Date:

Astronomy

Dec. 20, 2012 Rise Set
Actual Time 7:24 AM CST 5:05 PM CST
Civil Twilight 6:55 AM CST 5:34 PM CST
Nautical Twilight 6:23 AM CST 6:06 PM CST
Astronomical Twilight 5:51 AM CST 6:37 PM CST
Moon 12:15 PM CST (12/20) 12:21 AM CST (12/20)
Length of Visible Light 10h 38m
Length of Day
9h 40m
First Quarter, 55% of the Moon is Illuminated
Dec 20
First Quarter
Dec 28
Full
Jan 4
Last Quarter
Jan 11
New
Jan 18
First Quarter

Hourly Weather History & Observations

Time (CST) Temp. Windchill Dew Point Humidity Pressure Visibility Wind Dir Wind Speed Gust Speed Precip Events Conditions
12:55 AM 55.4 °F - 44.6 °F 67% 29.45 in 10.0 mi SW 11.5 mph - N/A   Scattered Clouds
1:35 AM 55.4 °F - 37.4 °F 51% 29.46 in 10.0 mi WSW 24.2 mph 33.4 mph N/A   Clear
1:55 AM 53.6 °F - 33.8 °F 47% 29.48 in 10.0 mi WSW 17.3 mph 33.4 mph N/A   Clear
2:16 AM 50.0 °F - 33.8 °F 54% 29.49 in 10.0 mi West 24.2 mph 31.1 mph N/A   Clear
2:35 AM 46.4 °F 37.9 °F 30.2 °F 53% 29.52 in 10.0 mi West 25.3 mph 39.1 mph N/A   Partly Cloudy
2:55 AM 46.4 °F 39.0 °F 33.8 °F 62% 29.52 in 10.0 mi West 19.6 mph 28.8 mph N/A   Scattered Clouds
3:15 AM 46.4 °F 37.9 °F 35.6 °F 66% 29.54 in 9.0 mi West 25.3 mph 33.4 mph N/A   Overcast
3:35 AM 42.8 °F 33.8 °F 35.6 °F 76% 29.56 in 5.0 mi West 21.9 mph 29.9 mph N/A   Overcast
3:55 AM 39.2 °F 29.3 °F 33.8 °F 81% 29.58 in 5.0 mi West 20.7 mph 35.7 mph N/A   Overcast
4:15 AM 37.4 °F 26.1 °F 33.8 °F 87% 29.60 in 10.0 mi West 24.2 mph 39.1 mph N/A   Overcast
4:35 AM 37.4 °F 26.4 °F 30.2 °F 75% 29.62 in 10.0 mi West 23.0 mph 33.4 mph N/A   Overcast
4:55 AM 35.6 °F 23.4 °F 28.4 °F 75% 29.64 in 10.0 mi West 25.3 mph 40.3 mph N/A   Overcast
5:15 AM 35.6 °F 22.5 °F 28.4 °F 75% 29.66 in 10.0 mi WNW 29.9 mph 41.4 mph N/A   Overcast
5:35 AM 35.6 °F 23.2 °F 26.6 °F 70% 29.68 in 10.0 mi WNW 26.5 mph 33.4 mph N/A   Overcast
5:55 AM 35.6 °F 23.0 °F 26.6 °F 70% 29.71 in 10.0 mi WNW 27.6 mph 40.3 mph N/A   Overcast
6:55 AM 33.8 °F 21.0 °F 23.0 °F 65% 29.78 in 10.0 mi WNW 25.3 mph 40.3 mph N/A   Overcast
7:15 AM 33.8 °F 20.5 °F 23.0 °F 65% 29.79 in 10.0 mi WNW 27.6 mph 42.6 mph N/A   Overcast
7:36 AM 32.0 °F 18.9 °F 23.0 °F 69% 29.81 in 10.0 mi WNW 24.2 mph 39.1 mph N/A   Overcast
7:55 AM 32.0 °F 17.6 °F 23.0 °F 69% 29.83 in 10.0 mi NW 29.9 mph 40.3 mph N/A   Overcast
8:35 AM 32.0 °F 18.1 °F 24.8 °F 75% 29.86 in 10.0 mi WNW 27.6 mph 38.0 mph N/A   Overcast
8:55 AM 32.0 °F 19.2 °F 26.6 °F 80% 29.88 in 10.0 mi NW 23.0 mph 33.4 mph N/A   Overcast
9:15 AM 33.8 °F 20.8 °F 24.8 °F 70% 29.90 in 10.0 mi WNW 26.5 mph 34.5 mph N/A   Overcast
9:55 AM 33.8 °F 20.3 °F 23.0 °F 65% 29.94 in 10.0 mi NW 28.8 mph 39.1 mph N/A   Overcast
10:15 AM 32.0 °F 18.6 °F 21.2 °F 64% 29.96 in 10.0 mi NW 25.3 mph 38.0 mph N/A   Overcast
10:35 AM 32.0 °F 19.2 °F 21.2 °F 64% 29.98 in 10.0 mi WNW 23.0 mph 35.7 mph N/A   Overcast
10:56 AM 33.8 °F 21.0 °F 21.2 °F 60% 29.99 in 10.0 mi WNW 25.3 mph 32.2 mph N/A   Overcast
11:15 AM 33.8 °F 22.5 °F 21.2 °F 60% 30.00 in 10.0 mi WNW 19.6 mph 29.9 mph N/A   Overcast
11:35 AM 35.6 °F 23.7 °F 21.2 °F 56% 29.99 in 10.0 mi WNW 24.2 mph 34.5 mph N/A   Mostly Cloudy
11:55 AM 35.6 °F 24.8 °F 19.4 °F 52% 30.00 in 10.0 mi NW 19.6 mph 34.5 mph N/A   Scattered Clouds
12:15 PM 35.6 °F 23.2 °F 21.2 °F 56% 30.01 in 10.0 mi WNW 26.5 mph 38.0 mph N/A   Partly Cloudy
12:35 PM 37.4 °F 26.1 °F 21.2 °F 52% 30.02 in 10.0 mi NW 24.2 mph 36.8 mph N/A   Partly Cloudy
12:55 PM 37.4 °F 26.9 °F 19.4 °F 48% 30.02 in 10.0 mi WNW 20.7 mph 36.8 mph N/A   Partly Cloudy
1:35 PM 37.4 °F 26.9 °F 19.4 °F 48% 30.04 in 10.0 mi NW 20.7 mph 34.5 mph N/A   Clear
1:55 PM 37.4 °F 26.4 °F 19.4 °F 48% 30.05 in 10.0 mi WNW 23.0 mph 29.9 mph N/A   Clear
2:15 PM 39.2 °F 28.7 °F 19.4 °F 45% 30.06 in 10.0 mi WNW 23.0 mph 34.5 mph N/A   Clear
2:35 PM 39.2 °F 30.2 °F 19.4 °F 45% 30.07 in 10.0 mi NW 17.3 mph 36.8 mph N/A   Clear
2:55 PM 39.2 °F 30.2 °F 19.4 °F 45% 30.09 in 10.0 mi WNW 17.3 mph 27.6 mph N/A   Clear
3:15 PM 37.4 °F 26.4 °F 19.4 °F 48% 30.10 in 10.0 mi WNW 23.0 mph 33.4 mph N/A   Clear
3:35 PM 37.4 °F 27.2 °F 17.6 °F 45% 30.11 in 10.0 mi WNW 19.6 mph 29.9 mph N/A   Clear
3:55 PM 37.4 °F 27.5 °F 17.6 °F 45% 30.12 in 10.0 mi NW 18.4 mph 29.9 mph N/A   Clear
4:15 PM 37.4 °F 28.5 °F 17.6 °F 45% 30.13 in 10.0 mi WNW 15.0 mph 29.9 mph N/A   Clear
4:35 PM 37.4 °F 26.1 °F 17.6 °F 45% 30.14 in 10.0 mi WNW 24.2 mph 33.4 mph N/A   Clear
4:55 PM 35.6 °F 25.2 °F 17.6 °F 48% 30.15 in 10.0 mi NW 18.4 mph 29.9 mph N/A   Clear
5:35 PM 35.6 °F 25.5 °F 17.6 °F 48% 30.17 in 10.0 mi WNW 17.3 mph 23.0 mph N/A   Clear
5:55 PM 33.8 °F 24.3 °F 17.6 °F 52% 30.18 in 10.0 mi WNW 13.8 mph - N/A   Clear
6:15 PM 33.8 °F 23.9 °F 15.8 °F 48% 30.19 in 10.0 mi WNW 15.0 mph 23.0 mph N/A   Clear
6:35 PM 33.8 °F 24.8 °F 15.8 °F 48% 30.20 in 10.0 mi NW 12.7 mph 20.7 mph N/A   Clear
6:55 PM 33.8 °F 24.8 °F 15.8 °F 48% 30.21 in 10.0 mi WNW 12.7 mph - N/A   Clear
7:35 PM 33.8 °F 24.8 °F 15.8 °F 48% 30.22 in 10.0 mi WNW 12.7 mph 18.4 mph N/A   Clear
7:55 PM 32.0 °F 22.1 °F 14.0 °F 48% 30.22 in 10.0 mi WNW 13.8 mph 19.6 mph N/A   Clear
8:15 PM 32.0 °F 22.5 °F 12.2 °F 44% 30.23 in 10.0 mi WNW 12.7 mph - N/A   Clear
8:35 PM 32.0 °F 23.6 °F 12.2 °F 44% 30.24 in 10.0 mi WNW 10.4 mph - N/A   Clear
8:55 PM 30.2 °F 22.6 °F 12.2 °F 47% 30.24 in 10.0 mi WNW 8.1 mph - N/A   Clear
9:36 PM 30.2 °F 21.9 °F 12.2 °F 47% 30.25 in 10.0 mi WNW 9.2 mph - N/A   Clear
9:55 PM 30.2 °F 21.9 °F 12.2 °F 47% 30.26 in 10.0 mi WNW 9.2 mph - N/A   Clear
10:15 PM 30.2 °F 21.9 °F 12.2 °F 47% 30.26 in 10.0 mi WNW 9.2 mph - N/A   Clear
10:35 PM 30.2 °F 23.4 °F 12.2 °F 47% 30.26 in 10.0 mi WNW 6.9 mph - N/A   Clear
10:55 PM 30.2 °F 23.4 °F 12.2 °F 47% 30.26 in 10.0 mi NW 6.9 mph - N/A   Clear
11:15 PM 30.2 °F 21.9 °F 12.2 °F 47% 30.27 in 10.0 mi WNW 9.2 mph - N/A   Clear